Pagrindinis puslapis
METAR-TAF:

METAR-TAF

Oro uostai :

Paros, Graikija

platuma: 37-01-15N, ilguma: 025-06-46E, Aukštis: 38 m

Dabartinis oras

Ataskaita buvo paskelbta 17 valandos ir 5 minutes, ne 09:50 UTC
Vėjas 14 kt iš Vakarų/Pietvakarių su gūsio iki 24 kt
Temperatūra 17°C
Drėgmė 55%
Slėgis 1009 hPa
Matomumas 10 km arba daugiau
Mažai debesys ne aukštis 4000 ft

METAR: LGPA 300950Z 25014G24KT 9999 FEW040 17/08 Q1009

Laikas: 04:55 (02:55 UTC)


TAF: trūkstamas

Orai ataskaitas ir orų prognozės (METAR, TAF).

turimą stotys yra geltonos ir raudonos taškus žemėlapyje.

Perkelti pele per norėdami pamatyti stoties vardą.

Tada spustelėkite, norėdami matyti oro stebėjimo ir prognozės.

Norėdami pakeisti žemėlapį: spustelėkite ant žalios mygtukų su juodo kryžiaus žemyn,; žalią mygtuką su brūkšneliu, jei norite nutolinti; arba žalių rodyklių gretimoms žemėlapius.


METAR-TAF: